createdAt,value
2023-05-10T00:02:04.560Z,75.69
2023-05-10T00:04:34.428Z,75.01
2023-05-10T00:07:03.310Z,70.23
2023-05-10T00:09:33.161Z,75.01
2023-05-10T00:12:02.347Z,69.28
2023-05-10T00:14:32.021Z,71.81
2023-05-10T00:17:01.594Z,72.68
2023-05-10T00:19:31.802Z,68.28
2023-05-10T00:22:03.868Z,69.59
2023-05-10T00:24:33.168Z,66.14
2023-05-10T00:27:06.110Z,65.86
2023-05-10T00:29:35.868Z,67.77
2023-05-10T00:32:07.291Z,65.34
2023-05-10T00:34:39.898Z,60.91
2023-05-10T00:37:08.910Z,62.28
2023-05-10T00:39:37.960Z,62.67
2023-05-10T00:42:09.949Z,67.06
2023-05-10T00:44:39.795Z,71.24
2023-05-10T00:47:09.520Z,71.84
2023-05-10T00:49:38.779Z,74.82
2023-05-10T00:52:07.894Z,82.51
2023-05-10T00:54:37.318Z,83.22
2023-05-10T00:57:06.645Z,78.58
2023-05-10T00:59:36.022Z,83.89
2023-05-10T01:02:05.959Z,72.80
2023-05-10T01:04:36.646Z,75.37
2023-05-10T01:07:06.292Z,76.28
2023-05-10T01:09:36.096Z,72.65
2023-05-10T01:12:06.006Z,73.63
2023-05-10T01:14:42.081Z,77.33
2023-05-10T01:17:16.669Z,77.09
2023-05-10T01:19:45.766Z,77.28
2023-05-10T01:22:51.870Z,78.37
2023-05-10T01:26:23.498Z,90.43
2023-05-10T01:29:40.322Z,74.21
2023-05-10T01:32:30.001Z,86.18
2023-05-10T01:35:26.787Z,84.19
2023-05-10T01:38:18.539Z,84.86
2023-05-10T01:41:30.707Z,86.20
2023-05-10T01:44:37.928Z,91.32
2023-05-10T01:47:13.212Z,92.58
2023-05-10T01:49:55.558Z,97.04
2023-05-10T01:52:39.683Z,98.82
2023-05-10T01:55:14.249Z,96.24
2023-05-10T01:57:45.990Z,100.00
2023-05-10T02:00:17.233Z,95.38
2023-05-10T02:02:58.111Z,88.31
2023-05-10T02:05:38.224Z,88.53
2023-05-10T02:08:37.906Z,87.82
2023-05-10T02:14:52.018Z,92.50
2023-05-10T02:17:33.593Z,89.08
2023-05-10T02:20:12.662Z,86.48
2023-05-10T02:23:15.456Z,85.04
2023-05-10T02:25:58.140Z,84.56
2023-05-10T02:28:43.201Z,89.93
2023-05-10T02:31:30.037Z,85.52
2023-05-10T02:34:02.828Z,90.69
2023-05-10T02:36:40.251Z,88.54
2023-05-10T02:40:38.035Z,88.83
2023-05-10T02:42:29.567Z,90.36
2023-05-10T02:45:06.799Z,92.78
2023-05-10T02:47:36.610Z,94.55
2023-05-10T02:50:07.598Z,91.64
2023-05-10T02:52:44.723Z,96.84
2023-05-10T02:56:29.437Z,100.00
2023-05-10T02:59:06.330Z,96.92
2023-05-10T03:01:38.693Z,98.84
2023-05-10T03:04:11.599Z,100.00
2023-05-10T03:06:41.825Z,100.00
2023-05-10T03:09:13.178Z,100.00
2023-05-10T03:12:03.994Z,100.00
2023-05-10T03:15:09.728Z,97.95
2023-05-10T03:18:01.040Z,100.00
2023-05-10T03:21:07.528Z,100.00
2023-05-10T03:23:58.685Z,90.42
2023-05-10T03:26:30.138Z,90.85
2023-05-10T03:29:10.833Z,90.17
2023-05-10T03:31:40.956Z,86.16
2023-05-10T03:34:39.400Z,91.55
2023-05-10T03:37:42.233Z,93.43
2023-05-10T03:40:25.018Z,91.58
2023-05-10T03:43:15.298Z,91.37
2023-05-10T03:45:47.635Z,91.33
2023-05-10T03:48:19.197Z,91.73
2023-05-10T03:50:48.418Z,94.14
2023-05-10T03:53:25.371Z,97.27
2023-05-10T03:55:54.399Z,100.00
2023-05-10T03:58:23.702Z,100.00
2023-05-10T04:01:04.426Z,100.00
2023-05-10T04:03:40.356Z,100.00
2023-05-10T04:06:14.216Z,100.00
2023-05-10T04:08:43.697Z,100.00
2023-05-10T04:11:15.593Z,100.00
2023-05-10T04:13:44.898Z,100.00
2023-05-10T04:16:16.203Z,100.00
2023-05-10T04:18:46.438Z,100.00
2023-05-10T04:21:15.872Z,100.00
2023-05-10T04:23:44.751Z,100.00
2023-05-10T04:26:15.321Z,100.00
2023-05-10T04:28:44.424Z,100.00
2023-05-10T04:31:18.059Z,100.00
2023-05-10T04:33:47.269Z,100.00
2023-05-10T04:36:18.605Z,100.00
2023-05-10T04:38:53.414Z,100.00
2023-05-10T04:41:30.841Z,100.00
2023-05-10T04:44:38.165Z,100.00
2023-05-10T04:47:07.346Z,100.00
2023-05-10T04:49:39.420Z,100.00
2023-05-10T04:52:31.157Z,100.00
2023-05-10T04:55:00.132Z,100.00
2023-05-10T04:57:29.048Z,100.00
2023-05-10T05:00:05.953Z,100.00
2023-05-10T05:02:35.579Z,100.00
2023-05-10T05:05:04.751Z,100.00
2023-05-10T05:07:36.228Z,100.00
2023-05-10T05:10:05.753Z,100.00
2023-05-10T05:12:37.355Z,100.00
2023-05-10T05:15:12.144Z,100.00
2023-05-10T05:17:43.291Z,100.00
2023-05-10T05:20:13.010Z,100.00
2023-05-10T05:22:45.530Z,100.00
2023-05-10T05:25:16.080Z,100.00
2023-05-10T05:27:45.412Z,100.00
2023-05-10T05:30:14.781Z,100.00
2023-05-10T05:32:48.836Z,100.00
2023-05-10T05:35:19.717Z,100.00
2023-05-10T05:37:56.630Z,100.00
2023-05-10T05:40:28.735Z,100.00
2023-05-10T05:43:10.198Z,100.00
2023-05-10T05:45:42.536Z,100.00
2023-05-10T05:48:14.910Z,100.00
2023-05-10T05:50:52.786Z,100.00
2023-05-10T05:53:22.503Z,100.00
2023-05-10T05:55:59.824Z,100.00
2023-05-10T05:58:29.754Z,100.00
2023-05-10T06:01:01.288Z,100.00
2023-05-10T06:03:30.895Z,100.00
2023-05-10T06:06:00.077Z,100.00
2023-05-10T06:08:29.399Z,100.00
2023-05-10T06:10:58.494Z,100.00
2023-05-10T06:13:30.780Z,100.00
2023-05-10T06:16:03.584Z,100.00
2023-05-10T06:18:33.448Z,100.00
2023-05-10T06:21:03.389Z,100.00
2023-05-10T06:23:32.526Z,100.00
2023-05-10T06:26:02.377Z,100.00
2023-05-10T06:28:33.152Z,100.00
2023-05-10T06:31:02.603Z,100.00
2023-05-10T06:33:31.844Z,100.00
2023-05-10T06:36:00.854Z,100.00
2023-05-10T06:38:29.856Z,100.00
2023-05-10T06:40:59.335Z,100.00
2023-05-10T06:43:30.309Z,100.00
2023-05-10T06:45:59.598Z,100.00
2023-05-10T06:48:28.722Z,100.00
2023-05-10T06:50:57.722Z,100.00
2023-05-10T06:53:26.945Z,100.00
2023-05-10T06:56:11.060Z,100.00
2023-05-10T06:58:58.195Z,100.00
2023-05-10T07:04:27.108Z,100.00
2023-05-10T07:06:57.508Z,100.00
2023-05-10T07:09:26.659Z,100.00
2023-05-10T07:11:55.635Z,100.00
2023-05-10T07:14:24.752Z,100.00
2023-05-10T07:16:53.685Z,100.00
2023-05-10T07:19:22.764Z,100.00
2023-05-10T07:21:52.633Z,100.00
2023-05-10T07:24:21.549Z,100.00
2023-05-10T07:26:50.580Z,100.00
2023-05-10T07:29:19.565Z,100.00
2023-05-10T07:31:48.467Z,100.00
2023-05-10T07:34:17.869Z,100.00
2023-05-10T07:36:47.046Z,100.00
2023-05-10T07:39:21.335Z,100.00
2023-05-10T07:41:56.953Z,100.00
2023-05-10T07:44:25.956Z,100.00
2023-05-10T07:46:55.078Z,100.00
2023-05-10T07:49:26.066Z,100.00
2023-05-10T07:51:55.423Z,100.00
2023-05-10T07:54:24.715Z,100.00
2023-05-10T07:56:53.908Z,100.00
2023-05-10T07:59:23.214Z,100.00
2023-05-10T08:01:54.555Z,100.00
2023-05-10T08:04:24.028Z,100.00
2023-05-10T08:06:54.250Z,100.00
2023-05-10T08:09:25.796Z,100.00
2023-05-10T08:11:55.153Z,100.00
2023-05-10T08:14:24.570Z,100.00
2023-05-10T08:16:53.451Z,100.00
2023-05-10T08:19:23.236Z,100.00
2023-05-10T08:21:52.768Z,100.00
2023-05-10T08:24:21.650Z,100.00
2023-05-10T08:26:50.729Z,100.00
2023-05-10T08:29:19.734Z,100.00
2023-05-10T08:31:48.748Z,100.00
2023-05-10T08:34:17.744Z,100.00
2023-05-10T08:36:47.579Z,100.00
2023-05-10T08:39:29.201Z,100.00
2023-05-10T08:42:03.562Z,100.00
2023-05-10T08:44:38.267Z,100.00
2023-05-10T08:47:09.116Z,100.00
2023-05-10T08:49:39.800Z,100.00
2023-05-10T08:52:10.278Z,100.00
2023-05-10T08:54:40.143Z,100.00
2023-05-10T08:57:09.376Z,100.00
2023-05-10T08:59:41.835Z,100.00
2023-05-10T09:02:14.261Z,100.00
2023-05-10T09:04:45.428Z,100.00
2023-05-10T09:07:15.356Z,100.00
2023-05-10T09:09:44.873Z,100.00
2023-05-10T09:12:18.126Z,100.00
2023-05-10T09:14:47.607Z,100.00
2023-05-10T09:17:16.686Z,100.00
2023-05-10T09:19:47.474Z,100.00
2023-05-10T09:22:16.764Z,100.00
2023-05-10T09:24:47.110Z,100.00
2023-05-10T09:27:16.785Z,100.00
2023-05-10T09:29:46.923Z,100.00
2023-05-10T09:32:17.181Z,100.00
2023-05-10T09:34:46.771Z,100.00
2023-05-10T09:37:16.080Z,100.00
2023-05-10T09:39:45.150Z,100.00
2023-05-10T09:42:14.840Z,100.00
2023-05-10T09:44:45.307Z,100.00
2023-05-10T09:47:20.751Z,100.00
2023-05-10T09:49:53.253Z,100.00
2023-05-10T09:52:22.162Z,100.00
2023-05-10T09:54:57.709Z,100.00
2023-05-10T09:57:27.802Z,100.00
2023-05-10T09:59:57.025Z,100.00
2023-05-10T10:02:31.181Z,100.00
2023-05-10T10:05:02.897Z,100.00
2023-05-10T10:07:32.181Z,100.00
2023-05-10T10:10:02.149Z,100.00
2023-05-10T10:12:32.249Z,100.00
2023-05-10T10:15:03.185Z,100.00
2023-05-10T10:17:34.840Z,100.00
2023-05-10T10:20:05.584Z,100.00
2023-05-10T10:22:34.799Z,100.00
2023-05-10T10:25:04.122Z,100.00
2023-05-10T10:28:12.487Z,100.00
2023-05-10T10:30:47.989Z,100.00
2023-05-10T10:33:34.971Z,100.00
2023-05-10T10:36:06.062Z,100.00
2023-05-10T10:38:50.335Z,100.00
2023-05-10T10:41:33.906Z,100.00
2023-05-10T10:44:24.580Z,100.00
2023-05-10T10:47:25.043Z,100.00
2023-05-10T10:50:03.396Z,100.00
2023-05-10T10:52:38.359Z,100.00
2023-05-10T10:55:13.111Z,100.00
2023-05-10T10:57:58.352Z,100.00
2023-05-10T11:01:08.402Z,100.00
2023-05-10T11:04:03.301Z,100.00
2023-05-10T11:06:37.412Z,100.00
2023-05-10T11:09:11.733Z,100.00
2023-05-10T11:11:57.168Z,100.00
2023-05-10T11:14:26.535Z,100.00
2023-05-10T11:16:55.828Z,100.00
2023-05-10T11:19:30.385Z,100.00
2023-05-10T11:22:08.591Z,100.00
2023-05-10T11:24:37.678Z,100.00
2023-05-10T11:27:07.620Z,100.00
2023-05-10T11:29:37.669Z,100.00
2023-05-10T11:32:09.985Z,100.00
2023-05-10T11:34:38.988Z,100.00
2023-05-10T11:37:07.856Z,100.00
2023-05-10T11:39:37.234Z,100.00
2023-05-10T11:42:06.299Z,100.00
2023-05-10T11:44:35.430Z,100.00
2023-05-10T11:47:04.947Z,100.00
2023-05-10T11:49:34.014Z,100.00
2023-05-10T11:52:09.991Z,100.00
2023-05-10T11:54:39.121Z,100.00
2023-05-10T11:57:08.519Z,100.00
2023-05-10T11:59:38.458Z,100.00
2023-05-10T12:02:07.754Z,100.00
2023-05-10T12:04:37.003Z,100.00
2023-05-10T12:07:06.863Z,100.00
2023-05-10T12:09:43.805Z,100.00
2023-05-10T12:12:19.415Z,100.00
2023-05-10T12:14:53.045Z,100.00
2023-05-10T12:17:22.014Z,100.00
2023-05-10T12:19:51.049Z,100.00
2023-05-10T12:22:23.588Z,100.00
2023-05-10T12:24:52.752Z,100.00
2023-05-10T12:27:21.855Z,100.00
2023-05-10T12:29:50.701Z,100.00
2023-05-10T12:32:20.065Z,100.00
2023-05-10T12:34:51.489Z,100.00
2023-05-10T12:37:28.000Z,100.00
2023-05-10T12:39:57.154Z,100.00
2023-05-10T12:42:26.798Z,100.00
2023-05-10T12:44:59.317Z,100.00
2023-05-10T12:47:28.075Z,100.00
2023-05-10T12:49:56.800Z,100.00
2023-05-10T12:52:27.171Z,100.00
2023-05-10T12:54:56.328Z,100.00
2023-05-10T12:57:26.114Z,100.00
2023-05-10T12:59:55.108Z,100.00
2023-05-10T13:02:25.090Z,100.00
2023-05-10T13:04:55.243Z,100.00
2023-05-10T13:07:24.220Z,100.00
2023-05-10T13:09:53.707Z,100.00
2023-05-10T13:12:22.529Z,100.00
2023-05-10T13:14:51.432Z,100.00
2023-05-10T13:17:20.271Z,100.00
2023-05-10T13:19:49.002Z,100.00
2023-05-10T13:22:25.661Z,100.00
2023-05-10T13:25:01.819Z,100.00
2023-05-10T13:27:30.849Z,100.00
2023-05-10T13:30:01.015Z,100.00
2023-05-10T13:32:32.516Z,100.00
2023-05-10T13:35:01.609Z,100.00
2023-05-10T13:37:31.143Z,100.00
2023-05-10T13:40:00.093Z,100.00
2023-05-10T13:42:29.359Z,100.00
2023-05-10T13:44:58.286Z,100.00
2023-05-10T13:47:27.081Z,100.00
2023-05-10T13:49:55.964Z,100.00
2023-05-10T13:52:24.814Z,100.00
2023-05-10T13:54:56.460Z,100.00
2023-05-10T13:57:25.877Z,100.00
2023-05-10T13:59:57.016Z,100.00
2023-05-10T14:02:27.563Z,100.00
2023-05-10T14:04:56.718Z,100.00
2023-05-10T14:07:25.854Z,100.00
2023-05-10T14:09:55.736Z,100.00
2023-05-10T14:12:25.014Z,100.00
2023-05-10T14:14:54.228Z,100.00
2023-05-10T14:17:23.989Z,100.00
2023-05-10T14:19:54.202Z,100.00
2023-05-10T14:22:23.650Z,100.00
2023-05-10T14:24:52.709Z,100.00
2023-05-10T14:27:21.660Z,100.00
2023-05-10T14:29:50.437Z,100.00
2023-05-10T14:32:20.420Z,100.00
2023-05-10T14:34:50.246Z,100.00
2023-05-10T14:37:19.797Z,100.00
2023-05-10T14:39:49.292Z,100.00
2023-05-10T14:42:18.667Z,100.00
2023-05-10T14:44:47.425Z,100.00
2023-05-10T14:47:16.936Z,100.00
2023-05-10T14:49:46.272Z,100.00
2023-05-10T14:52:16.068Z,100.00
2023-05-10T14:54:45.046Z,100.00
2023-05-10T14:57:14.439Z,100.00
2023-05-10T14:59:43.880Z,100.00
2023-05-10T15:02:13.269Z,100.00
2023-05-10T15:04:42.672Z,100.00
2023-05-10T15:07:15.953Z,100.00
2023-05-10T15:09:44.927Z,100.00
2023-05-10T15:12:14.135Z,100.00
2023-05-10T15:14:43.080Z,100.00
2023-05-10T15:17:12.134Z,100.00
2023-05-10T15:19:41.048Z,100.00
2023-05-10T15:22:09.956Z,100.00
2023-05-10T15:24:38.980Z,100.00
2023-05-10T15:27:08.005Z,100.00
2023-05-10T15:29:37.724Z,100.00
2023-05-10T15:32:06.684Z,100.00
2023-05-10T15:34:37.002Z,100.00
2023-05-10T15:37:06.452Z,100.00
2023-05-10T15:39:35.344Z,100.00
2023-05-10T15:42:05.343Z,100.00
2023-05-10T15:44:36.652Z,100.00
2023-05-10T15:47:06.828Z,100.00
2023-05-10T15:49:36.788Z,100.00
2023-05-10T15:52:07.559Z,100.00
2023-05-10T15:54:36.596Z,100.00
2023-05-10T15:57:06.016Z,100.00
2023-05-10T15:59:36.606Z,100.00
2023-05-10T16:02:06.785Z,100.00
2023-05-10T16:04:36.695Z,100.00
2023-05-10T16:07:06.100Z,100.00
2023-05-10T16:09:35.997Z,100.00
2023-05-10T16:12:05.421Z,100.00
2023-05-10T16:14:34.452Z,100.00
2023-05-10T16:17:07.898Z,100.00
2023-05-10T16:19:37.090Z,100.00
2023-05-10T16:22:06.651Z,100.00
2023-05-10T16:24:35.949Z,100.00
2023-05-10T16:27:05.170Z,100.00
2023-05-10T16:29:34.196Z,100.00
2023-05-10T16:32:03.577Z,100.00
2023-05-10T16:34:33.217Z,100.00
2023-05-10T16:37:02.471Z,100.00
2023-05-10T16:39:31.472Z,100.00
2023-05-10T16:42:00.520Z,100.00
2023-05-10T16:44:29.600Z,100.00
2023-05-10T16:46:58.780Z,100.00
2023-05-10T16:49:27.807Z,100.00
2023-05-10T16:51:57.187Z,100.00
2023-05-10T16:54:26.868Z,100.00
2023-05-10T16:56:56.113Z,100.00
2023-05-10T16:59:25.100Z,100.00
2023-05-10T17:01:54.780Z,100.00
2023-05-10T17:04:24.125Z,100.00
2023-05-10T17:06:53.120Z,100.00
2023-05-10T17:09:25.237Z,100.00
2023-05-10T17:11:54.445Z,100.00
2023-05-10T17:14:24.293Z,100.00
2023-05-10T17:16:53.920Z,100.00
2023-05-10T17:19:25.604Z,100.00
2023-05-10T17:21:55.412Z,100.00
2023-05-10T17:24:24.620Z,100.00
2023-05-10T17:26:53.661Z,100.00
2023-05-10T17:29:22.660Z,100.00
2023-05-10T17:31:51.678Z,100.00
2023-05-10T17:34:21.328Z,100.00
2023-05-10T17:36:50.458Z,100.00
2023-05-10T17:39:19.694Z,100.00
2023-05-10T17:41:48.948Z,100.00
2023-05-10T17:44:19.548Z,100.00
2023-05-10T17:46:48.755Z,100.00
2023-05-10T17:49:17.703Z,100.00
2023-05-10T17:51:48.901Z,100.00
2023-05-10T17:54:18.733Z,100.00
2023-05-10T17:56:47.762Z,100.00
2023-05-10T17:59:17.128Z,100.00
2023-05-10T18:01:46.331Z,100.00
2023-05-10T18:04:15.477Z,100.00
2023-05-10T18:06:45.196Z,100.00
2023-05-10T18:09:14.732Z,100.00
2023-05-10T18:11:43.747Z,100.00
2023-05-10T18:14:13.079Z,100.00
2023-05-10T18:16:43.939Z,100.00
2023-05-10T18:19:13.083Z,100.00
2023-05-10T18:21:42.495Z,100.00
2023-05-10T18:24:12.354Z,100.00
2023-05-10T18:26:41.709Z,100.00
2023-05-10T18:29:13.062Z,100.00
2023-05-10T18:31:44.236Z,100.00
2023-05-10T18:34:16.397Z,100.00
2023-05-10T18:36:50.216Z,100.00
2023-05-10T18:39:19.400Z,100.00
2023-05-10T18:41:48.660Z,100.00
2023-05-10T18:44:17.777Z,100.00
2023-05-10T18:46:48.195Z,100.00
2023-05-10T18:49:17.881Z,100.00
2023-05-10T18:51:47.686Z,100.00
2023-05-10T18:54:16.711Z,100.00
2023-05-10T18:56:46.187Z,100.00
2023-05-10T18:59:15.483Z,100.00
2023-05-10T19:01:45.638Z,100.00
2023-05-10T19:04:15.306Z,100.00
2023-05-10T19:06:44.315Z,100.00
2023-05-10T19:09:13.622Z,100.00
2023-05-10T19:11:44.304Z,100.00
2023-05-10T19:14:13.734Z,100.00
2023-05-10T19:16:42.911Z,100.00
2023-05-10T19:19:14.268Z,100.00
2023-05-10T19:21:43.948Z,100.00
2023-05-10T19:24:14.255Z,100.00
2023-05-10T19:26:48.465Z,95.20
2023-05-10T19:29:17.795Z,94.50
2023-05-10T19:31:47.367Z,92.52
2023-05-10T19:34:17.252Z,100.00
2023-05-10T19:39:15.559Z,89.47
2023-05-10T19:41:45.202Z,83.83
2023-05-10T19:47:20.943Z,85.79
2023-05-10T19:49:50.602Z,82.94
2023-05-10T19:52:23.534Z,89.28
2023-05-10T19:54:52.581Z,84.44
2023-05-10T19:57:22.526Z,84.32
2023-05-10T19:59:51.763Z,78.73
2023-05-10T20:02:21.349Z,77.06
2023-05-10T20:04:50.977Z,77.74
2023-05-10T20:07:20.360Z,79.98
2023-05-10T20:09:49.628Z,78.44
2023-05-10T20:12:19.024Z,72.55
2023-05-10T20:14:50.956Z,76.46
2023-05-10T20:17:20.691Z,66.28
2023-05-10T20:19:50.120Z,70.34
2023-05-10T20:22:25.299Z,64.75
2023-05-10T20:25:02.114Z,65.38
2023-05-10T20:27:31.457Z,67.39
2023-05-10T20:30:00.980Z,66.23
2023-05-10T20:32:33.405Z,65.96
2023-05-10T20:35:05.473Z,65.14
2023-05-10T20:37:34.854Z,64.69
2023-05-10T20:40:05.647Z,68.52
2023-05-10T20:42:34.919Z,63.42
2023-05-10T20:45:09.294Z,60.59
2023-05-10T20:47:40.878Z,64.22
2023-05-10T20:50:10.427Z,60.52
2023-05-10T20:52:39.662Z,59.75
2023-05-10T20:55:11.775Z,64.71
2023-05-10T20:57:44.086Z,65.09
2023-05-10T21:00:16.944Z,72.65
2023-05-10T21:02:47.331Z,68.64
2023-05-10T21:05:18.413Z,64.45
2023-05-10T21:07:48.470Z,62.04
2023-05-10T21:10:18.065Z,64.87
2023-05-10T21:12:47.770Z,62.75
2023-05-10T21:15:16.946Z,59.20
2023-05-10T21:17:52.681Z,60.00
2023-05-10T21:20:31.864Z,60.03
2023-05-10T21:23:18.276Z,59.12
2023-05-10T21:25:57.335Z,59.97
2023-05-10T21:28:28.665Z,59.56
2023-05-10T21:31:07.263Z,60.95
2023-05-10T21:33:45.864Z,57.64
2023-05-10T21:36:19.900Z,58.71
2023-05-10T21:38:51.187Z,63.42
2023-05-10T21:41:20.436Z,57.58
2023-05-10T21:43:52.371Z,59.46
2023-05-10T21:46:25.189Z,59.68
2023-05-10T21:48:57.189Z,60.21
2023-05-10T21:51:34.508Z,60.09
2023-05-10T21:54:22.414Z,61.31
2023-05-10T21:56:51.825Z,63.83
2023-05-10T21:59:24.318Z,63.31
2023-05-10T22:01:54.038Z,59.92
2023-05-10T22:04:27.515Z,57.44
2023-05-10T22:07:41.965Z,55.41
2023-05-10T22:09:54.391Z,51.57
2023-05-10T22:12:29.731Z,50.69
2023-05-10T22:15:09.509Z,51.05
2023-05-10T22:17:47.856Z,52.02
2023-05-10T22:20:23.082Z,52.42
2023-05-10T22:22:52.858Z,50.77
2023-05-10T22:25:23.195Z,48.18
2023-05-10T22:27:52.804Z,48.53
2023-05-10T22:30:32.173Z,50.83
2023-05-10T22:33:02.503Z,46.79
2023-05-10T22:35:38.607Z,47.36
2023-05-10T22:38:07.736Z,48.73
2023-05-10T22:40:40.095Z,48.98
2023-05-10T22:43:11.834Z,51.04
2023-05-10T22:45:41.551Z,47.17
2023-05-10T22:48:11.249Z,45.96
2023-05-10T22:50:43.417Z,46.18
2023-05-10T22:53:12.580Z,44.26
2023-05-10T22:55:42.114Z,43.90
2023-05-10T22:58:14.917Z,45.39
2023-05-10T23:00:45.014Z,42.62
2023-05-10T23:03:14.750Z,43.14
2023-05-10T23:05:54.462Z,44.81
2023-05-10T23:08:25.908Z,42.89
2023-05-10T23:10:55.721Z,41.46
2023-05-10T23:13:28.378Z,41.48
2023-05-10T23:16:11.004Z,41.03
2023-05-10T23:18:40.924Z,41.06
2023-05-10T23:21:20.795Z,43.50
2023-05-10T23:23:53.403Z,42.64
2023-05-10T23:26:24.778Z,41.67
2023-05-10T23:28:54.067Z,43.95
2023-05-10T23:31:30.344Z,43.40
2023-05-10T23:33:59.591Z,42.37
2023-05-10T23:37:42.747Z,44.18
2023-05-10T23:41:57.310Z,43.88
2023-05-10T23:43:43.415Z,41.23
2023-05-10T23:46:59.087Z,42.56
2023-05-10T23:49:46.862Z,41.43
2023-05-10T23:52:32.782Z,42.56
2023-05-10T23:55:53.823Z,42.27
